Time;durP1;ratioP1;P1;durP2;ratioP2;P2;SDS_P1;SDS_P2;PMS_P1;PMS_P2;Temp;Humidity;BMP_temperature;BMP_pressure;BME280_temperature;BME280_humidity;BME280_pressure;Samples;Min_cycle;Max_cycle;Signal;HPM_P1;HPM_P2
2024/03/31 00:00:19;;;;;;;45.72;17.85;;;;;;;-144.12;100.00;72078.50;5025026;28;20033;-68
2024/03/31 00:02:48;;;;;;;42.42;17.45;;;;;;;-144.12;100.00;72078.50;5029859;28;20121;-67
2024/03/31 00:05:14;;;;;;;58.20;22.00;;;;;;;-144.12;100.00;72078.50;5026101;28;20480;-67
2024/03/31 00:07:40;;;;;;;53.05;18.10;;;;;;;-144.12;100.00;72078.50;5023637;28;20041;-68
2024/03/31 00:10:06;;;;;;;43.40;16.60;;;;;;;-144.12;100.00;72078.50;5027257;28;20443;-68
2024/03/31 00:12:31;;;;;;;53.33;19.67;;;;;;;-144.12;100.00;72078.50;5022501;28;20049;-67
2024/03/31 00:14:57;;;;;;;63.38;23.08;;;;;;;-144.12;100.00;72078.50;5028212;28;20487;-68
2024/03/31 00:17:23;;;;;;;62.83;22.65;;;;;;;-144.12;100.00;72078.50;5044946;28;20103;-66
2024/03/31 00:19:48;;;;;;;166.65;47.90;;;;;;;-144.12;100.00;72078.50;5031210;28;20041;-67
2024/03/31 00:22:15;;;;;;;156.02;51.45;;;;;;;-144.12;100.00;72078.50;5031066;28;20040;-69
2024/03/31 00:24:43;;;;;;;108.45;37.30;;;;;;;-144.12;100.00;72078.50;5026007;28;20118;-67
2024/03/31 00:27:09;;;;;;;89.80;30.60;;;;;;;-144.12;100.00;72078.50;5025150;28;20051;-67
2024/03/31 00:29:35;;;;;;;212.63;63.85;;;;;;;-144.12;100.00;72078.50;5046272;28;20031;-67
2024/03/31 00:32:00;;;;;;;249.88;72.25;;;;;;;-144.12;100.00;72078.50;5056478;28;20021;-66
2024/03/31 00:34:26;;;;;;;93.22;33.63;;;;;;;-144.12;100.00;72078.50;5013597;28;20025;-67
2024/03/31 00:36:52;;;;;;;94.38;31.38;;;;;;;-144.12;100.00;72078.50;5007506;28;20574;-68
2024/03/31 00:39:17;;;;;;;51.75;19.02;;;;;;;-144.12;100.00;72078.50;5029646;28;20865;-67
2024/03/31 00:41:43;;;;;;;38.70;16.50;;;;;;;-144.12;100.00;72078.50;5046066;28;20037;-67
2024/03/31 00:44:08;;;;;;;45.88;17.35;;;;;;;-144.12;100.00;72078.50;5031932;28;20057;-67
2024/03/31 00:46:34;;;;;;;37.53;15.60;;;;;;;-144.12;100.00;72078.50;5031490;28;20045;-67
2024/03/31 00:48:59;;;;;;;39.58;15.68;;;;;;;-144.12;100.00;72078.50;5045858;28;20038;-67
2024/03/31 00:51:25;;;;;;;35.75;14.15;;;;;;;-144.12;100.00;72078.50;5030678;28;20552;-67
2024/03/31 00:53:50;;;;;;;33.35;14.95;;;;;;;-144.12;100.00;72078.50;5065542;28;20033;-67
2024/03/31 00:56:16;;;;;;;30.20;14.13;;;;;;;-144.12;100.00;72078.50;5049113;28;20029;-67
2024/03/31 00:58:42;;;;;;;37.20;14.85;;;;;;;-144.12;100.00;72078.50;5031163;28;20055;-67
2024/03/31 01:01:10;;;;;;;29.30;14.30;;;;;;;-144.12;100.00;72078.50;5016988;28;20536;-67
2024/03/31 01:03:36;;;;;;;31.27;13.68;;;;;;;-144.12;100.00;72078.50;5030309;28;20076;-67
2024/03/31 01:06:09;;;;;;;37.40;15.65;;;;;;;-144.12;100.00;72078.50;5065515;28;20060;-67
2024/03/31 01:08:35;;;;;;;35.50;15.20;;;;;;;-144.12;100.00;72078.50;5044202;28;20513;-67
2024/03/31 01:11:01;;;;;;;33.03;16.08;;;;;;;-144.12;100.00;72078.50;5046719;28;20221;-67
2024/03/31 01:13:27;;;;;;;30.58;14.65;;;;;;;-144.12;100.00;72078.50;5018915;28;20119;-67
2024/03/31 01:15:53;;;;;;;28.65;12.85;;;;;;;-144.12;100.00;72078.50;5044804;28;20152;-67
2024/03/31 01:18:19;;;;;;;26.95;13.50;;;;;;;-144.12;100.00;72078.50;5033904;28;20449;-67
2024/03/31 01:20:44;;;;;;;32.03;13.10;;;;;;;-144.12;100.00;72078.50;5027690;28;20031;-67
2024/03/31 01:23:12;;;;;;;24.92;11.85;;;;;;;-144.12;100.00;72078.50;5030322;28;20033;-67
2024/03/31 01:25:38;;;;;;;34.83;12.23;;;;;;;-144.12;100.00;72078.50;5036478;28;20044;-68
2024/03/31 01:28:05;;;;;;;29.38;12.60;;;;;;;-144.12;100.00;72078.50;5055314;28;20037;-67
2024/03/31 01:30:31;;;;;;;24.65;10.68;;;;;;;-144.12;100.00;72078.50;5037081;28;20032;-67
2024/03/31 01:32:58;;;;;;;23.48;10.95;;;;;;;-144.12;100.00;72078.50;5035264;28;20467;-67
2024/03/31 01:35:23;;;;;;;22.10;10.13;;;;;;;-144.12;100.00;72078.50;5031771;28;20513;-67
2024/03/31 01:37:50;;;;;;;21.38;9.70;;;;;;;-144.12;100.00;72078.50;5049837;28;20038;-67
2024/03/31 01:40:16;;;;;;;20.63;9.80;;;;;;;-144.12;100.00;72078.50;5030104;28;20025;-68
2024/03/31 01:42:44;;;;;;;17.23;8.77;;;;;;;-144.12;100.00;72078.50;5031240;28;20403;-68
2024/03/31 01:45:14;;;;;;;22.42;9.70;;;;;;;-144.12;100.00;72078.50;5031947;28;20517;-67
2024/03/31 01:47:39;;;;;;;21.42;8.60;;;;;;;-144.12;100.00;72078.50;5039826;28;20051;-68
2024/03/31 01:50:05;;;;;;;18.85;8.10;;;;;;;-144.12;100.00;72078.50;5031011;28;20030;-66
2024/03/31 01:52:31;;;;;;;14.65;7.72;;;;;;;-144.12;100.00;72078.50;5030319;28;20402;-66
2024/03/31 01:54:58;;;;;;;14.98;7.60;;;;;;;-144.12;100.00;72078.50;5045732;28;20029;-68
2024/03/31 01:57:24;;;;;;;23.10;8.80;;;;;;;-144.12;100.00;72078.50;5046602;28;20116;-66
2024/03/31 01:59:50;;;;;;;15.18;7.80;;;;;;;-144.12;100.00;72078.50;5040609;28;20048;-67
2024/03/31 02:02:15;;;;;;;14.60;8.02;;;;;;;-144.12;100.00;72078.50;5064024;28;20117;-68
2024/03/31 02:04:41;;;;;;;17.95;8.50;;;;;;;-144.12;100.00;72078.50;5026453;28;20060;-66
2024/03/31 02:07:06;;;;;;;22.73;8.90;;;;;;;-144.12;100.00;72078.50;5015710;28;20041;-70
2024/03/31 02:09:31;;;;;;;20.92;7.63;;;;;;;-144.12;100.00;72078.50;5008228;28;20030;-68
2024/03/31 02:11:57;;;;;;;15.95;7.68;;;;;;;-144.12;100.00;72078.50;5028786;28;20076;-67
2024/03/31 02:14:23;;;;;;;17.02;7.65;;;;;;;-144.12;100.00;72078.50;5035647;28;20048;-68
2024/03/31 02:16:48;;;;;;;19.33;7.95;;;;;;;-144.12;100.00;72078.50;5045635;28;20494;-68
2024/03/31 02:19:14;;;;;;;14.57;7.88;;;;;;;-144.12;100.00;72078.50;5032969;28;20037;-68
2024/03/31 02:21:39;;;;;;;19.15;7.68;;;;;;;-144.12;100.00;72078.50;5042438;28;20411;-67
2024/03/31 02:24:05;;;;;;;16.10;6.95;;;;;;;-144.12;100.00;72078.50;5027501;28;20045;-68
2024/03/31 02:26:31;;;;;;;14.13;7.38;;;;;;;-144.12;100.00;72078.50;5027885;28;20033;-67
2024/03/31 02:28:56;;;;;;;20.35;7.45;;;;;;;-144.12;100.00;72078.50;5034194;28;20089;-68
2024/03/31 02:31:22;;;;;;;15.73;7.78;;;;;;;-144.12;100.00;72078.50;5048130;28;20033;-67
2024/03/31 02:33:47;;;;;;;19.27;6.88;;;;;;;-144.12;100.00;72078.50;5043916;28;20029;-68
2024/03/31 02:36:14;;;;;;;14.30;6.55;;;;;;;-144.12;100.00;72078.50;5041278;28;20029;-67
2024/03/31 02:38:40;;;;;;;14.32;7.15;;;;;;;-144.12;100.00;72078.50;5030176;28;20035;-67
2024/03/31 02:41:06;;;;;;;16.52;6.45;;;;;;;-144.12;100.00;72078.50;5033200;28;20033;-67
2024/03/31 02:43:32;;;;;;;14.82;6.10;;;;;;;-144.12;100.00;72078.50;5030751;28;20033;-68
2024/03/31 02:45:57;;;;;;;18.52;6.70;;;;;;;-144.12;100.00;72078.50;5031162;28;20037;-67
2024/03/31 02:48:23;;;;;;;11.50;5.80;;;;;;;-144.12;100.00;72078.50;5028887;28;20025;-68
2024/03/31 02:50:49;;;;;;;11.05;5.97;;;;;;;-144.12;100.00;72078.50;5032210;28;20140;-67
2024/03/31 02:53:15;;;;;;;14.82;6.07;;;;;;;-144.12;100.00;72078.50;5033142;28;20040;-67
2024/03/31 02:55:41;;;;;;;11.52;5.40;;;;;;;-144.12;100.00;72078.50;5015037;28;20033;-68
2024/03/31 02:58:07;;;;;;;14.32;5.97;;;;;;;-144.12;100.00;72078.50;5016888;28;20033;-68
2024/03/31 03:00:34;;;;;;;14.00;5.90;;;;;;;-144.12;100.00;72078.50;5026122;28;20033;-67
2024/03/31 03:03:00;;;;;;;11.40;5.90;;;;;;;-144.12;100.00;72078.50;5031668;28;20037;-67
2024/03/31 03:05:25;;;;;;;11.07;5.57;;;;;;;-144.12;100.00;72078.50;5009774;28;20443;-68
2024/03/31 03:07:51;;;;;;;12.25;5.13;;;;;;;-144.12;100.00;72078.50;5048330;28;20171;-68
2024/03/31 03:10:17;;;;;;;15.10;5.13;;;;;;;-144.12;100.00;72078.50;5033746;28;20021;-68
2024/03/31 03:12:46;;;;;;;10.80;5.35;;;;;;;-144.12;100.00;72078.50;5046583;28;20075;-68
2024/03/31 03:15:12;;;;;;;9.25;5.15;;;;;;;-144.12;100.00;72078.50;5029840;28;20045;-68
2024/03/31 03:17:37;;;;;;;10.02;4.70;;;;;;;-144.12;100.00;72078.50;5029039;28;20474;-68
2024/03/31 03:20:03;;;;;;;9.05;4.28;;;;;;;-144.12;100.00;72078.50;5029157;28;20036;-68
2024/03/31 03:22:29;;;;;;;13.82;4.20;;;;;;;-144.12;100.00;72078.50;5017434;28;20033;-67
2024/03/31 03:24:55;;;;;;;13.13;5.00;;;;;;;-144.12;100.00;72078.50;5032259;28;20029;-67
2024/03/31 03:27:21;;;;;;;9.43;4.95;;;;;;;-144.12;100.00;72078.50;5033818;28;20495;-67
2024/03/31 03:29:46;;;;;;;11.55;4.68;;;;;;;-144.12;100.00;72078.50;5036937;28;20050;-68
2024/03/31 03:32:12;;;;;;;9.23;4.45;;;;;;;-144.12;100.00;72078.50;5025413;28;20029;-68
2024/03/31 03:34:37;;;;;;;8.93;4.72;;;;;;;-144.12;100.00;72078.50;5029224;28;20045;-68
2024/03/31 03:37:03;;;;;;;11.50;4.90;;;;;;;-144.12;100.00;72078.50;5032100;28;20101;-68
2024/03/31 03:39:28;;;;;;;11.32;5.63;;;;;;;-144.12;100.00;72078.50;5044337;28;20060;-68
2024/03/31 03:41:54;;;;;;;13.65;4.57;;;;;;;-144.12;100.00;72078.50;5047567;28;20033;-67
2024/03/31 03:44:20;;;;;;;13.43;4.75;;;;;;;-144.12;100.00;72078.50;5029605;28;20120;-68
2024/03/31 03:46:46;;;;;;;13.40;5.03;;;;;;;-144.12;100.00;72078.50;5013290;28;20588;-68
2024/03/31 03:49:12;;;;;;;11.88;5.13;;;;;;;-144.12;100.00;72078.50;5034646;28;20055;-67
2024/03/31 03:51:38;;;;;;;12.63;4.90;;;;;;;-144.12;100.00;72078.50;5012828;28;20380;-67
2024/03/31 03:54:04;;;;;;;12.63;4.65;;;;;;;-144.12;100.00;72078.50;5030590;28;20056;-68
2024/03/31 03:56:31;;;;;;;11.77;5.35;;;;;;;-144.12;100.00;72078.50;5030327;28;20131;-68
2024/03/31 03:58:57;;;;;;;13.02;5.55;;;;;;;-144.12;100.00;72078.50;5010833;28;20491;-67
2024/03/31 04:01:23;;;;;;;12.07;5.53;;;;;;;-144.12;100.00;72078.50;5043552;28;20044;-68
2024/03/31 04:03:48;;;;;;;13.63;5.32;;;;;;;-144.12;100.00;72078.50;5062432;28;20041;-67
2024/03/31 04:06:14;;;;;;;14.95;5.53;;;;;;;-144.12;100.00;72078.50;5013578;28;20414;-67
2024/03/31 04:08:40;;;;;;;16.00;6.53;;;;;;;-144.12;100.00;72078.50;5011843;28;20060;-67
2024/03/31 04:11:06;;;;;;;19.95;5.53;;;;;;;-144.12;100.00;72078.50;5043467;28;20090;-68
2024/03/31 04:13:31;;;;;;;13.70;5.93;;;;;;;-144.12;100.00;72078.50;5014267;28;20029;-68
2024/03/31 04:16:00;;;;;;;16.88;5.30;;;;;;;-144.12;100.00;72078.50;5064503;28;20116;-67
2024/03/31 04:18:38;;;;;;;;;;;;;;;-144.12;100.00;72078.50;5053937;28;20036;-68
2024/03/31 04:21:07;;;;;;;11.10;5.20;;;;;;;-144.12;100.00;72078.50;5031155;28;19917;-68
2024/03/31 04:23:34;;;;;;;14.80;5.65;;;;;;;-144.12;100.00;72078.50;5035590;28;20144;-68
2024/03/31 04:25:59;;;;;;;12.13;4.88;;;;;;;-144.12;100.00;72078.50;5013926;28;20116;-68
2024/03/31 04:28:25;;;;;;;15.48;5.82;;;;;;;-144.12;100.00;72078.50;5042964;28;20025;-67
2024/03/31 04:30:50;;;;;;;16.17;6.00;;;;;;;-144.12;100.00;72078.50;5066219;28;20041;-68
2024/03/31 04:33:16;;;;;;;13.80;5.63;;;;;;;-144.12;100.00;72078.50;5012895;28;20149;-68
2024/03/31 04:35:42;;;;;;;12.70;5.20;;;;;;;-144.12;100.00;72078.50;5014529;28;20106;-67
2024/03/31 04:38:07;;;;;;;15.35;5.85;;;;;;;-144.12;100.00;72078.50;5015113;28;20029;-68
2024/03/31 04:40:33;;;;;;;12.43;5.82;;;;;;;-144.12;100.00;72078.50;5030410;28;20026;-67
2024/03/31 04:43:00;;;;;;;9.32;4.68;;;;;;;-144.12;100.00;72078.50;5032069;28;20041;-67
2024/03/31 04:45:29;;;;;;;11.02;5.38;;;;;;;-144.12;100.00;72078.50;5029578;28;20037;-66
2024/03/31 04:47:55;;;;;;;13.90;6.13;;;;;;;-144.12;100.00;72078.50;5035208;28;20143;-66
2024/03/31 04:50:21;;;;;;;9.60;4.95;;;;;;;-144.12;100.00;72078.50;5017154;28;20561;-67
2024/03/31 04:52:47;;;;;;;9.75;4.85;;;;;;;-144.12;100.00;72078.50;5045622;28;20051;-67
2024/03/31 04:55:12;;;;;;;14.95;4.78;;;;;;;-144.12;100.00;72078.50;5046327;28;20041;-66
2024/03/31 04:57:40;;;;;;;14.90;5.15;;;;;;;-144.12;100.00;72078.50;5038785;28;20029;-67
2024/03/31 05:00:07;;;;;;;10.25;4.88;;;;;;;-144.12;100.00;72078.50;5027372;28;20610;-67
2024/03/31 05:02:34;;;;;;;14.13;5.13;;;;;;;-144.12;100.00;72078.50;5006910;28;20034;-67
2024/03/31 05:04:59;;;;;;;14.13;5.45;;;;;;;-144.12;100.00;72078.50;5030885;28;20021;-67
2024/03/31 05:07:25;;;;;;;19.85;6.20;;;;;;;-144.12;100.00;72078.50;5035437;28;20065;-66
2024/03/31 05:09:50;;;;;;;11.65;5.53;;;;;;;-144.12;100.00;72078.50;5030173;28;20040;-67
2024/03/31 05:12:16;;;;;;;15.57;5.97;;;;;;;-144.12;100.00;72078.50;5026456;28;20034;-67
2024/03/31 05:14:42;;;;;;;14.85;6.18;;;;;;;-144.12;100.00;72078.50;5032151;28;20025;-67
2024/03/31 05:17:07;;;;;;;13.38;5.97;;;;;;;-144.12;100.00;72078.50;5046728;28;20105;-68
2024/03/31 05:19:33;;;;;;;17.70;6.15;;;;;;;-144.12;100.00;72078.50;5045308;28;20662;-67
2024/03/31 05:21:58;;;;;;;11.60;5.45;;;;;;;-144.12;100.00;72078.50;5042374;28;20029;-67
2024/03/31 05:24:24;;;;;;;10.45;4.93;;;;;;;-144.12;100.00;72078.50;5033951;28;20124;-66
2024/03/31 05:26:50;;;;;;;13.35;5.70;;;;;;;-144.12;100.00;72078.50;5030807;28;20069;-67
2024/03/31 05:29:18;;;;;;;12.23;5.32;;;;;;;-144.12;100.00;72078.50;5031270;28;20104;-67
2024/03/31 05:31:43;;;;;;;10.40;5.22;;;;;;;-144.12;100.00;72078.50;5066083;28;20112;-67
2024/03/31 05:34:18;;;;;;;14.27;5.25;;;;;;;-144.12;100.00;72078.50;5029194;28;20069;-67
2024/03/31 05:36:44;;;;;;;11.70;5.03;;;;;;;-144.12;100.00;72078.50;5053436;28;20772;-67
2024/03/31 05:39:09;;;;;;;13.88;5.72;;;;;;;-144.12;100.00;72078.50;5034923;28;20115;-67
2024/03/31 05:41:35;;;;;;;11.65;5.50;;;;;;;-144.12;100.00;72078.50;5017760;28;20039;-67
2024/03/31 05:44:02;;;;;;;12.73;5.88;;;;;;;-144.12;100.00;72078.50;5015633;28;20079;-67
2024/03/31 05:46:29;;;;;;;13.50;5.95;;;;;;;-144.12;100.00;72078.50;5034278;28;20037;-67
2024/03/31 05:48:56;;;;;;;11.10;5.25;;;;;;;-144.12;100.00;72078.50;5030400;28;20089;-67
2024/03/31 05:51:25;;;;;;;10.48;4.82;;;;;;;-144.12;100.00;72078.50;5030815;28;20406;-67
2024/03/31 05:53:50;;;;;;;12.82;4.88;;;;;;;-144.12;100.00;72078.50;5020032;28;20112;-67
2024/03/31 05:56:17;;;;;;;12.93;5.32;;;;;;;-144.12;100.00;72078.50;5049416;28;20036;-67
2024/03/31 05:58:43;;;;;;;9.70;4.10;;;;;;;-144.12;100.00;72078.50;5029910;28;20479;-67
2024/03/31 06:01:13;;;;;;;11.13;4.88;;;;;;;-144.12;100.00;72078.50;5013189;28;20037;-67
2024/03/31 06:03:39;;;;;;;9.25;4.50;;;;;;;-144.12;100.00;72078.50;5032004;28;20034;-67
2024/03/31 06:06:05;;;;;;;9.65;4.90;;;;;;;-144.12;100.00;72078.50;5044685;28;20380;-67
2024/03/31 06:08:31;;;;;;;11.40;4.82;;;;;;;-144.12;100.00;72078.50;5030015;28;20029;-68
2024/03/31 06:10:57;;;;;;;13.00;4.88;;;;;;;-144.12;100.00;72078.50;5032030;28;20026;-67
2024/03/31 06:13:23;;;;;;;10.40;4.43;;;;;;;-144.12;100.00;72078.50;5047803;28;20060;-67
2024/03/31 06:15:49;;;;;;;10.80;4.03;;;;;;;-144.12;100.00;72078.50;5070082;28;20061;-67
2024/03/31 06:18:14;;;;;;;12.23;4.93;;;;;;;-144.12;100.00;72078.50;5018077;28;20094;-67
2024/03/31 06:20:42;;;;;;;12.25;5.00;;;;;;;-144.12;100.00;72078.50;5039181;28;20025;-67
2024/03/31 06:23:08;;;;;;;9.70;5.07;;;;;;;-144.12;100.00;72078.50;5045232;28;20022;-67
2024/03/31 06:25:34;;;;;;;12.15;4.65;;;;;;;-144.12;100.00;72078.50;5035911;28;20021;-67
2024/03/31 06:27:59;;;;;;;11.15;4.63;;;;;;;-144.12;100.00;72078.50;5052951;28;20120;-67
2024/03/31 06:30:25;;;;;;;8.98;4.32;;;;;;;-144.12;100.00;72078.50;5017883;28;20503;-67
2024/03/31 06:32:52;;;;;;;11.65;5.00;;;;;;;-144.12;100.00;72078.50;5033284;28;20041;-67
2024/03/31 06:35:17;;;;;;;14.07;5.30;;;;;;;-144.12;100.00;72078.50;5033599;28;20516;-68
2024/03/31 06:37:43;;;;;;;10.18;4.70;;;;;;;-144.12;100.00;72078.50;5040602;28;20418;-67
2024/03/31 06:40:09;;;;;;;11.02;4.72;;;;;;;-144.12;100.00;72078.50;5025500;28;20135;-68
2024/03/31 06:42:34;;;;;;;9.77;3.97;;;;;;;-144.12;100.00;72078.50;5047221;28;20029;-67
2024/03/31 06:45:00;;;;;;;8.57;4.05;;;;;;;-144.12;100.00;72078.50;5031685;28;20037;-67
2024/03/31 06:47:26;;;;;;;8.82;4.65;;;;;;;-144.12;100.00;72078.50;5018820;28;20146;-66
2024/03/31 06:49:52;;;;;;;10.23;4.05;;;;;;;-144.12;100.00;72078.50;5029737;28;20575;-67
2024/03/31 06:52:17;;;;;;;10.13;4.65;;;;;;;-144.12;100.00;72078.50;5029118;28;20116;-67
2024/03/31 06:54:43;;;;;;;9.55;4.72;;;;;;;-144.12;100.00;72078.50;5029053;28;20021;-67
2024/03/31 06:57:09;;;;;;;13.95;5.18;;;;;;;-144.12;100.00;72078.50;5011136;28;20103;-67
2024/03/31 06:59:34;;;;;;;11.77;5.05;;;;;;;-144.12;100.00;72078.50;5046730;28;20033;-67
2024/03/31 07:02:00;;;;;;;10.60;4.57;;;;;;;-144.12;100.00;72078.50;5028220;28;20676;-67
2024/03/31 07:04:26;;;;;;;12.05;4.65;;;;;;;-144.12;100.00;72078.50;5062961;28;20022;-67
2024/03/31 07:06:52;;;;;;;12.15;5.10;;;;;;;-144.12;100.00;72078.50;5030996;28;20120;-67
2024/03/31 07:09:18;;;;;;;11.35;4.60;;;;;;;-144.12;100.00;72078.50;5027265;28;20048;-66
2024/03/31 07:11:44;;;;;;;11.25;4.28;;;;;;;-144.12;100.00;72078.50;5031376;28;20025;-67
2024/03/31 07:14:11;;;;;;;10.32;4.53;;;;;;;-144.12;100.00;72078.50;5048259;28;20033;-67
2024/03/31 07:16:37;;;;;;;9.38;4.72;;;;;;;-144.12;100.00;72078.50;5041158;28;20079;-68
2024/03/31 07:19:03;;;;;;;8.05;3.50;;;;;;;-144.12;100.00;72078.50;5019628;28;20037;-67
2024/03/31 07:21:31;;;;;;;12.07;4.40;;;;;;;-144.12;100.00;72078.50;5013760;28;20040;-67
2024/03/31 07:23:57;;;;;;;9.02;4.38;;;;;;;-144.12;100.00;72078.50;5034035;28;20120;-66
2024/03/31 07:26:22;;;;;;;8.75;4.05;;;;;;;-144.12;100.00;72078.50;5014330;28;20091;-66
2024/03/31 07:28:48;;;;;;;14.13;4.22;;;;;;;-144.12;100.00;72078.50;5016064;28;20096;-67
2024/03/31 07:31:13;;;;;;;8.65;3.75;;;;;;;-144.12;100.00;72078.50;5044557;28;20041;-67
2024/03/31 07:33:39;;;;;;;8.10;3.80;;;;;;;-144.12;100.00;72078.50;5013965;28;20108;-67
2024/03/31 07:36:04;;;;;;;10.50;3.47;;;;;;;-144.12;100.00;72078.50;5032040;28;20037;-67
2024/03/31 07:38:30;;;;;;;8.18;3.72;;;;;;;-144.12;100.00;72078.50;5029080;28;20506;-67
2024/03/31 07:40:55;;;;;;;9.90;3.95;;;;;;;-144.12;100.00;72078.50;5031524;28;20103;-68
2024/03/31 07:43:22;;;;;;;11.95;4.88;;;;;;;-144.12;100.00;72078.50;5012525;28;20136;-67
2024/03/31 07:45:47;;;;;;;8.00;3.90;;;;;;;-144.12;100.00;72078.50;5027608;28;20073;-67
2024/03/31 07:48:13;;;;;;;8.75;3.60;;;;;;;-144.12;100.00;72078.50;5034732;28;20057;-67
2024/03/31 07:50:38;;;;;;;10.02;3.63;;;;;;;-144.12;100.00;72078.50;5034961;28;20101;-67
2024/03/31 07:53:04;;;;;;;6.28;3.47;;;;;;;-144.12;100.00;72078.50;5042573;28;20574;-69
2024/03/31 07:55:29;;;;;;;10.43;4.38;;;;;;;-144.12;100.00;72078.50;5029878;28;20068;-67
2024/03/31 07:57:55;;;;;;;6.32;3.30;;;;;;;-144.12;100.00;72078.50;5045536;28;20507;-68
2024/03/31 08:00:20;;;;;;;8.52;3.83;;;;;;;-144.12;100.00;72078.50;5021888;28;20033;-67
2024/03/31 08:02:46;;;;;;;7.53;3.83;;;;;;;-144.12;100.00;72078.50;5039661;28;20036;-68
2024/03/31 08:05:12;;;;;;;10.18;4.13;;;;;;;-144.12;100.00;72078.50;5024803;28;20034;-66
2024/03/31 08:07:38;;;;;;;12.45;3.83;;;;;;;-144.12;100.00;72078.50;5030391;28;20067;-68
2024/03/31 08:10:04;;;;;;;10.57;3.97;;;;;;;-144.12;100.00;72078.50;5059497;28;20029;-67
2024/03/31 08:12:29;;;;;;;6.75;3.67;;;;;;;-144.12;100.00;72078.50;5030812;28;20092;-67
2024/03/31 08:14:55;;;;;;;7.88;3.83;;;;;;;-144.12;100.00;72078.50;5030603;28;20033;-68
2024/03/31 08:17:20;;;;;;;10.68;3.53;;;;;;;-144.12;100.00;72078.50;5028588;28;20124;-68
2024/03/31 08:19:45;;;;;;;8.45;3.65;;;;;;;-144.12;100.00;72078.50;5043429;28;20044;-66
2024/03/31 08:22:11;;;;;;;6.90;3.92;;;;;;;-144.12;100.00;72078.50;5025047;28;20475;-68
2024/03/31 08:24:36;;;;;;;8.15;3.90;;;;;;;-144.12;100.00;72078.50;5031951;28;20040;-67
2024/03/31 08:27:02;;;;;;;7.05;3.55;;;;;;;-144.12;100.00;72078.50;5030002;28;20033;-67
2024/03/31 08:29:28;;;;;;;11.25;3.60;;;;;;;-144.12;100.00;72078.50;5022732;28;20030;-66
2024/03/31 08:31:53;;;;;;;10.20;4.10;;;;;;;-144.12;100.00;72078.50;5042121;28;20030;-68
2024/03/31 08:34:19;;;;;;;10.00;4.35;;;;;;;-144.12;100.00;72078.50;5042735;28;20430;-67
2024/03/31 08:36:44;;;;;;;8.50;4.35;;;;;;;-144.12;100.00;72078.50;5029792;28;20047;-67
2024/03/31 08:39:10;;;;;;;11.10;4.03;;;;;;;-144.12;100.00;72078.50;5027656;28;20507;-66
2024/03/31 08:41:57;;;;;;;8.70;4.53;;;;;;;-144.12;100.00;72078.50;5008290;28;20029;-67
2024/03/31 08:44:24;;;;;;;7.85;3.92;;;;;;;-144.12;100.00;72078.50;5026325;28;20033;-67
2024/03/31 08:46:50;;;;;;;10.77;4.40;;;;;;;-144.12;100.00;72078.50;5029597;28;20021;-67
2024/03/31 08:49:17;;;;;;;8.40;4.47;;;;;;;-144.12;100.00;72078.50;5044388;28;20041;-67
2024/03/31 08:51:42;;;;;;;9.10;4.25;;;;;;;-144.12;100.00;72078.50;5042780;28;20033;-68
2024/03/31 08:54:08;;;;;;;11.65;4.50;;;;;;;-144.12;100.00;72078.50;5044506;28;20095;-69
2024/03/31 08:56:33;;;;;;;9.43;3.85;;;;;;;-144.12;100.00;72078.50;5024886;28;20025;-68
2024/03/31 08:59:01;;;;;;;12.73;5.03;;;;;;;-144.12;100.00;72078.50;5044510;28;20067;-67
2024/03/31 09:01:27;;;;;;;19.67;4.70;;;;;;;-144.12;100.00;72078.50;5030973;28;20112;-67
2024/03/31 09:03:53;;;;;;;10.98;4.40;;;;;;;-144.12;100.00;72078.50;5032842;28;20988;-68
2024/03/31 09:06:18;;;;;;;11.15;5.15;;;;;;;-144.12;100.00;72078.50;5029903;28;20388;-68
2024/03/31 09:08:44;;;;;;;10.63;4.78;;;;;;;-144.12;100.00;72078.50;5028495;28;20041;-67
2024/03/31 09:11:10;;;;;;;14.40;4.72;;;;;;;-144.12;100.00;72078.50;5051111;28;20037;-67
2024/03/31 09:13:36;;;;;;;11.80;4.93;;;;;;;-144.12;100.00;72078.50;5022624;28;20460;-68
2024/03/31 09:16:02;;;;;;;11.40;4.88;;;;;;;-144.12;100.00;72078.50;5043653;28;20025;-68
2024/03/31 09:18:28;;;;;;;9.48;4.13;;;;;;;-144.12;100.00;72078.50;5047232;28;20022;-68
2024/03/31 09:20:53;;;;;;;12.35;5.22;;;;;;;-144.12;100.00;72078.50;5031303;28;20784;-68
2024/03/31 09:23:19;;;;;;;9.60;4.20;;;;;;;-144.12;100.00;72078.50;5029781;28;20046;-68
2024/03/31 09:25:45;;;;;;;8.70;4.00;;;;;;;-144.12;100.00;72078.50;5011352;28;20642;-67
2024/03/31 09:28:10;;;;;;;12.52;4.57;;;;;;;-144.12;100.00;72078.50;5036358;28;20043;-68
2024/03/31 09:30:38;;;;;;;12.60;4.40;;;;;;;-144.12;100.00;72078.50;5047375;28;20033;-68
2024/03/31 09:33:04;;;;;;;11.77;4.50;;;;;;;-144.12;100.00;72078.50;5062985;28;20021;-70
2024/03/31 09:35:31;;;;;;;10.18;4.68;;;;;;;-144.12;100.00;72078.50;5027135;28;20072;-68
2024/03/31 09:37:57;;;;;;;10.52;4.65;;;;;;;-144.12;100.00;72078.50;5030377;28;20038;-67
2024/03/31 09:40:22;;;;;;;8.93;4.18;;;;;;;-144.12;100.00;72078.50;5033797;28;20037;-68
2024/03/31 09:42:48;;;;;;;10.10;3.95;;;;;;;-144.12;100.00;72078.50;5033714;28;20460;-68
2024/03/31 09:45:14;;;;;;;9.40;4.10;;;;;;;-144.12;100.00;72078.50;5039127;28;20624;-69
2024/03/31 09:47:49;;;;;;;10.40;4.28;;;;;;;-144.12;100.00;72078.50;5039419;28;20036;-68
2024/03/31 09:50:38;;;;;;;9.60;4.10;;;;;;;-144.12;100.00;72078.50;5032344;28;20061;-68
2024/03/31 09:53:07;;;;;;;10.90;4.20;;;;;;;-144.12;100.00;72078.50;5033062;28;20114;-68
2024/03/31 09:55:39;;;;;;;10.13;4.35;;;;;;;-144.12;100.00;72078.50;5031838;28;20409;-69
2024/03/31 09:58:09;;;;;;;12.15;4.85;;;;;;;-144.12;100.00;72078.50;5025211;28;20035;-69
2024/03/31 10:00:35;;;;;;;13.32;4.80;;;;;;;-144.12;100.00;72078.50;5015067;28;20037;-69
2024/03/31 10:03:10;;;;;;;9.48;4.60;;;;;;;-144.12;100.00;72078.50;5029409;28;20032;-69
2024/03/31 10:05:41;;;;;;;9.23;4.57;;;;;;;-144.12;100.00;72078.50;5042069;28;20515;-69
2024/03/31 10:08:10;;;;;;;10.00;4.45;;;;;;;-144.12;100.00;72078.50;5061481;28;20128;-68
2024/03/31 10:10:38;;;;;;;9.80;4.65;;;;;;;-144.12;100.00;72078.50;5011888;28;20034;-67
2024/03/31 10:13:05;;;;;;;9.50;4.32;;;;;;;-144.12;100.00;72078.50;5041827;28;20032;-67
2024/03/31 10:15:33;;;;;;;14.27;4.65;;;;;;;-144.12;100.00;72078.50;5027748;28;20034;-67
2024/03/31 10:18:00;;;;;;;10.32;4.72;;;;;;;-144.12;100.00;72078.50;5032982;28;20513;-67
2024/03/31 10:20:26;;;;;;;7.85;3.67;;;;;;;-144.12;100.00;72078.50;5032360;28;20535;-68
2024/03/31 10:22:54;;;;;;;10.30;3.97;;;;;;;-144.12;100.00;72078.50;5027133;28;20063;-67
2024/03/31 10:25:22;;;;;;;10.13;4.57;;;;;;;-144.12;100.00;72078.50;5030760;28;20545;-66
2024/03/31 10:27:51;;;;;;;12.60;4.15;;;;;;;-144.12;100.00;72078.50;5030355;28;20032;-68
2024/03/31 10:30:17;;;;;;;9.38;3.58;;;;;;;-144.12;100.00;72078.50;5031153;28;20025;-67
2024/03/31 10:32:42;;;;;;;11.38;4.72;;;;;;;-144.12;100.00;72078.50;5030554;28;20447;-67
2024/03/31 10:35:08;;;;;;;13.88;5.25;;;;;;;-144.12;100.00;72078.50;5028038;28;20495;-68
2024/03/31 10:37:36;;;;;;;11.32;4.93;;;;;;;-144.12;100.00;72078.50;5032981;28;20033;-67
2024/03/31 10:40:04;;;;;;;9.30;4.30;;;;;;;-144.12;100.00;72078.50;5028858;28;20026;-67
2024/03/31 10:42:30;;;;;;;9.50;3.83;;;;;;;-144.12;100.00;72078.50;5030614;28;20049;-67
2024/03/31 10:44:56;;;;;;;12.57;5.13;;;;;;;-144.12;100.00;72078.50;5030592;28;20114;-68
2024/03/31 10:47:22;;;;;;;8.18;4.35;;;;;;;-144.12;100.00;72078.50;5032531;28;20079;-68
2024/03/31 10:50:02;;;;;;;9.88;4.68;;;;;;;-144.12;100.00;72078.50;5032503;28;20049;-68
2024/03/31 10:52:28;;;;;;;9.82;4.32;;;;;;;-144.12;100.00;72078.50;5045827;28;20037;-68
2024/03/31 10:54:56;;;;;;;9.50;4.57;;;;;;;-144.12;100.00;72078.50;5029568;28;20108;-68
2024/03/31 10:57:22;;;;;;;10.65;4.78;;;;;;;-144.12;100.00;72078.50;5061139;28;20478;-68